Terminal Aerodrome Forecast
Issued by NWS Louisville, KY

Home | Current Version | Previous Version | Text Only | Print | Product List | Glossary On
Versions: 1 2 3 4 5 6 7 8 9 10 11 12 13 14 15 16 17 18 19 20 21 22 23 24 25 26
000
FTUS43 KLMK 141615 AAB
TAFLEX
TAF AMD
KLEX 141615Z 1416/1512 26006KT 1SM -RA BR OVC002
      TEMPO 1416/1418 1/2SM FG
     FM142300 32005KT 2SM -RA BR OVC002
     FM150200 35002KT 2SM -DZ BR OVC002
     FM150800 01003KT 1/2SM FG OVC001=

USA.gov is the U.S. government's official web portal to all federal, state and local government web resources and services.